sensor_id;sensor_type;location;lat;lon;timestamp;P1;durP1;ratioP1;P2;durP2;ratioP2
57023;SDS011;42916;54.346;18.562;2022-07-05T00:00:50;4.20;;;1.60;;
57023;SDS011;42916;54.346;18.562;2022-07-05T00:03:17;3.90;;;1.50;;
57023;SDS011;42916;54.346;18.562;2022-07-05T00:05:43;3.90;;;1.60;;
57023;SDS011;42916;54.346;18.562;2022-07-05T00:08:10;3.20;;;1.80;;
57023;SDS011;42916;54.346;18.562;2022-07-05T00:10:36;4.00;;;1.70;;
57023;SDS011;42916;54.346;18.562;2022-07-05T00:13:04;3.00;;;1.80;;
57023;SDS011;42916;54.346;18.562;2022-07-05T00:15:32;3.70;;;1.80;;
57023;SDS011;42916;54.346;18.562;2022-07-05T00:17:58;3.30;;;1.90;;
57023;SDS011;42916;54.346;18.562;2022-07-05T00:20:25;2.60;;;1.70;;
57023;SDS011;42916;54.346;18.562;2022-07-05T00:22:52;1.80;;;1.30;;
57023;SDS011;42916;54.346;18.562;2022-07-05T00:25:18;2.50;;;1.40;;
57023;SDS011;42916;54.346;18.562;2022-07-05T00:27:45;3.60;;;1.90;;
57023;SDS011;42916;54.346;18.562;2022-07-05T00:30:13;4.60;;;2.40;;
57023;SDS011;42916;54.346;18.562;2022-07-05T00:32:40;3.40;;;1.90;;
57023;SDS011;42916;54.346;18.562;2022-07-05T00:35:07;3.40;;;2.00;;
57023;SDS011;42916;54.346;18.562;2022-07-05T00:37:35;3.60;;;1.70;;
57023;SDS011;42916;54.346;18.562;2022-07-05T00:40:02;2.50;;;1.60;;
57023;SDS011;42916;54.346;18.562;2022-07-05T00:42:29;3.50;;;2.10;;
57023;SDS011;42916;54.346;18.562;2022-07-05T00:44:56;2.60;;;1.70;;
57023;SDS011;42916;54.346;18.562;2022-07-05T00:47:23;3.10;;;2.00;;
57023;SDS011;42916;54.346;18.562;2022-07-05T00:49:49;4.30;;;2.10;;
57023;SDS011;42916;54.346;18.562;2022-07-05T00:52:16;7.50;;;2.70;;
57023;SDS011;42916;54.346;18.562;2022-07-05T00:54:43;2.30;;;1.80;;
57023;SDS011;42916;54.346;18.562;2022-07-05T00:57:09;2.40;;;1.80;;
57023;SDS011;42916;54.346;18.562;2022-07-05T00:59:36;4.00;;;1.90;;
57023;SDS011;42916;54.346;18.562;2022-07-05T01:02:02;4.00;;;2.40;;
57023;SDS011;42916;54.346;18.562;2022-07-05T01:04:29;4.10;;;2.10;;
57023;SDS011;42916;54.346;18.562;2022-07-05T01:06:56;6.30;;;2.20;;
57023;SDS011;42916;54.346;18.562;2022-07-05T01:09:23;3.90;;;2.40;;
57023;SDS011;42916;54.346;18.562;2022-07-05T01:11:50;3.80;;;2.20;;
57023;SDS011;42916;54.346;18.562;2022-07-05T01:14:18;3.10;;;2.20;;
57023;SDS011;42916;54.346;18.562;2022-07-05T01:16:47;3.40;;;2.20;;
57023;SDS011;42916;54.346;18.562;2022-07-05T01:19:15;4.60;;;2.20;;
57023;SDS011;42916;54.346;18.562;2022-07-05T01:21:44;4.60;;;2.10;;
57023;SDS011;42916;54.346;18.562;2022-07-05T01:24:13;5.20;;;2.10;;
57023;SDS011;42916;54.346;18.562;2022-07-05T01:26:42;4.20;;;1.90;;
57023;SDS011;42916;54.346;18.562;2022-07-05T01:29:11;2.10;;;1.90;;
57023;SDS011;42916;54.346;18.562;2022-07-05T01:31:41;3.00;;;2.00;;
57023;SDS011;42916;54.346;18.562;2022-07-05T01:34:08;3.60;;;2.30;;
57023;SDS011;42916;54.346;18.562;2022-07-05T01:36:35;2.90;;;2.00;;
57023;SDS011;42916;54.346;18.562;2022-07-05T01:39:03;3.00;;;2.20;;
57023;SDS011;42916;54.346;18.562;2022-07-05T01:41:32;4.50;;;2.10;;
57023;SDS011;42916;54.346;18.562;2022-07-05T01:43:59;2.80;;;2.00;;
57023;SDS011;42916;54.346;18.562;2022-07-05T01:46:29;4.60;;;2.10;;
57023;SDS011;42916;54.346;18.562;2022-07-05T01:49:00;2.10;;;1.90;;
57023;SDS011;42916;54.346;18.562;2022-07-05T01:51:34;3.40;;;2.00;;
57023;SDS011;42916;54.346;18.562;2022-07-05T01:54:08;5.60;;;2.50;;
57023;SDS011;42916;54.346;18.562;2022-07-05T01:56:36;3.90;;;2.10;;
57023;SDS011;42916;54.346;18.562;2022-07-05T01:59:04;4.40;;;2.20;;
57023;SDS011;42916;54.346;18.562;2022-07-05T02:04:03;3.30;;;2.30;;
57023;SDS011;42916;54.346;18.562;2022-07-05T02:06:34;4.00;;;2.10;;
57023;SDS011;42916;54.346;18.562;2022-07-05T02:09:03;2.60;;;1.70;;
57023;SDS011;42916;54.346;18.562;2022-07-05T02:11:32;3.80;;;2.00;;
57023;SDS011;42916;54.346;18.562;2022-07-05T02:13:59;3.50;;;1.90;;
57023;SDS011;42916;54.346;18.562;2022-07-05T02:16:28;2.10;;;1.70;;
57023;SDS011;42916;54.346;18.562;2022-07-05T02:18:55;4.30;;;2.00;;
57023;SDS011;42916;54.346;18.562;2022-07-05T02:21:23;4.40;;;2.20;;
57023;SDS011;42916;54.346;18.562;2022-07-05T02:23:52;5.40;;;2.30;;
57023;SDS011;42916;54.346;18.562;2022-07-05T02:26:21;3.60;;;2.20;;
57023;SDS011;42916;54.346;18.562;2022-07-05T02:28:48;4.20;;;1.70;;
57023;SDS011;42916;54.346;18.562;2022-07-05T02:31:17;3.40;;;1.60;;
57023;SDS011;42916;54.346;18.562;2022-07-05T02:33:47;2.00;;;1.40;;
57023;SDS011;42916;54.346;18.562;2022-07-05T02:36:14;5.00;;;1.30;;
57023;SDS011;42916;54.346;18.562;2022-07-05T02:38:40;3.20;;;1.90;;
57023;SDS011;42916;54.346;18.562;2022-07-05T02:41:08;3.80;;;1.90;;
57023;SDS011;42916;54.346;18.562;2022-07-05T02:43:37;2.70;;;2.10;;
57023;SDS011;42916;54.346;18.562;2022-07-05T02:46:07;5.60;;;2.30;;
57023;SDS011;42916;54.346;18.562;2022-07-05T02:48:35;4.60;;;1.80;;
57023;SDS011;42916;54.346;18.562;2022-07-05T02:51:04;5.30;;;1.90;;
57023;SDS011;42916;54.346;18.562;2022-07-05T02:53:31;2.40;;;1.80;;
57023;SDS011;42916;54.346;18.562;2022-07-05T02:55:58;4.40;;;1.50;;
57023;SDS011;42916;54.346;18.562;2022-07-05T02:58:25;4.70;;;1.70;;
57023;SDS011;42916;54.346;18.562;2022-07-05T03:00:52;2.80;;;1.80;;
57023;SDS011;42916;54.346;18.562;2022-07-05T03:03:20;1.90;;;1.50;;
57023;SDS011;42916;54.346;18.562;2022-07-05T03:05:48;4.30;;;2.10;;
57023;SDS011;42916;54.346;18.562;2022-07-05T03:08:14;2.80;;;1.40;;
57023;SDS011;42916;54.346;18.562;2022-07-05T03:10:41;3.80;;;1.70;;
57023;SDS011;42916;54.346;18.562;2022-07-05T03:13:08;4.20;;;1.50;;
57023;SDS011;42916;54.346;18.562;2022-07-05T03:15:35;5.20;;;1.60;;
57023;SDS011;42916;54.346;18.562;2022-07-05T03:18:03;5.70;;;1.50;;
57023;SDS011;42916;54.346;18.562;2022-07-05T03:20:31;4.70;;;1.30;;
57023;SDS011;42916;54.346;18.562;2022-07-05T03:22:57;4.10;;;1.40;;
57023;SDS011;42916;54.346;18.562;2022-07-05T03:25:30;2.10;;;1.50;;
57023;SDS011;42916;54.346;18.562;2022-07-05T03:27:57;1.80;;;1.40;;
57023;SDS011;42916;54.346;18.562;2022-07-05T03:30:25;4.70;;;1.70;;
57023;SDS011;42916;54.346;18.562;2022-07-05T03:32:52;2.40;;;1.40;;
57023;SDS011;42916;54.346;18.562;2022-07-05T03:35:19;2.50;;;1.20;;
57023;SDS011;42916;54.346;18.562;2022-07-05T03:37:47;2.90;;;1.20;;
57023;SDS011;42916;54.346;18.562;2022-07-05T03:40:14;1.80;;;1.20;;
57023;SDS011;42916;54.346;18.562;2022-07-05T03:42:41;1.40;;;1.10;;
57023;SDS011;42916;54.346;18.562;2022-07-05T03:45:09;2.50;;;1.20;;
57023;SDS011;42916;54.346;18.562;2022-07-05T03:47:37;3.80;;;1.10;;
57023;SDS011;42916;54.346;18.562;2022-07-05T03:50:05;4.20;;;1.20;;
57023;SDS011;42916;54.346;18.562;2022-07-05T03:52:32;3.20;;;1.20;;
57023;SDS011;42916;54.346;18.562;2022-07-05T03:54:59;3.70;;;1.20;;
57023;SDS011;42916;54.346;18.562;2022-07-05T03:57:26;4.10;;;1.30;;
57023;SDS011;42916;54.346;18.562;2022-07-05T03:59:54;1.30;;;1.10;;
57023;SDS011;42916;54.346;18.562;2022-07-05T04:02:21;2.20;;;1.10;;
57023;SDS011;42916;54.346;18.562;2022-07-05T04:04:48;2.60;;;1.20;;
57023;SDS011;42916;54.346;18.562;2022-07-05T04:07:14;2.80;;;0.80;;
57023;SDS011;42916;54.346;18.562;2022-07-05T04:09:41;3.20;;;1.00;;
57023;SDS011;42916;54.346;18.562;2022-07-05T04:12:08;3.00;;;1.30;;
57023;SDS011;42916;54.346;18.562;2022-07-05T04:14:36;1.00;;;0.90;;
57023;SDS011;42916;54.346;18.562;2022-07-05T04:17:03;2.40;;;0.90;;
57023;SDS011;42916;54.346;18.562;2022-07-05T04:19:30;1.50;;;0.90;;
57023;SDS011;42916;54.346;18.562;2022-07-05T04:21:57;1.70;;;0.80;;
57023;SDS011;42916;54.346;18.562;2022-07-05T04:24:23;3.30;;;1.20;;
57023;SDS011;42916;54.346;18.562;2022-07-05T04:26:50;1.80;;;1.10;;
57023;SDS011;42916;54.346;18.562;2022-07-05T04:29:17;2.00;;;1.00;;
57023;SDS011;42916;54.346;18.562;2022-07-05T04:31:44;1.30;;;0.90;;
57023;SDS011;42916;54.346;18.562;2022-07-05T04:34:11;2.40;;;0.90;;
57023;SDS011;42916;54.346;18.562;2022-07-05T04:36:39;2.00;;;1.00;;
57023;SDS011;42916;54.346;18.562;2022-07-05T04:39:07;2.00;;;0.90;;
57023;SDS011;42916;54.346;18.562;2022-07-05T04:41:34;3.10;;;1.40;;
57023;SDS011;42916;54.346;18.562;2022-07-05T04:44:02;4.60;;;1.10;;
57023;SDS011;42916;54.346;18.562;2022-07-05T04:46:29;1.90;;;0.90;;
57023;SDS011;42916;54.346;18.562;2022-07-05T04:48:56;1.90;;;1.00;;
57023;SDS011;42916;54.346;18.562;2022-07-05T04:51:24;3.80;;;1.30;;
57023;SDS011;42916;54.346;18.562;2022-07-05T04:53:51;3.10;;;1.10;;
57023;SDS011;42916;54.346;18.562;2022-07-05T04:56:17;2.30;;;1.00;;
57023;SDS011;42916;54.346;18.562;2022-07-05T04:58:44;2.50;;;1.00;;
57023;SDS011;42916;54.346;18.562;2022-07-05T05:01:10;2.40;;;0.90;;
57023;SDS011;42916;54.346;18.562;2022-07-05T05:03:37;1.20;;;0.80;;
57023;SDS011;42916;54.346;18.562;2022-07-05T05:06:03;1.50;;;0.80;;
57023;SDS011;42916;54.346;18.562;2022-07-05T05:08:30;3.40;;;1.00;;
57023;SDS011;42916;54.346;18.562;2022-07-05T05:10:57;2.60;;;0.80;;
57023;SDS011;42916;54.346;18.562;2022-07-05T05:13:23;2.50;;;0.90;;
57023;SDS011;42916;54.346;18.562;2022-07-05T05:15:50;3.50;;;0.80;;
57023;SDS011;42916;54.346;18.562;2022-07-05T05:18:17;1.80;;;0.90;;
57023;SDS011;42916;54.346;18.562;2022-07-05T05:20:44;1.10;;;0.70;;
57023;SDS011;42916;54.346;18.562;2022-07-05T05:23:11;1.50;;;0.80;;
57023;SDS011;42916;54.346;18.562;2022-07-05T05:25:37;2.20;;;0.90;;
57023;SDS011;42916;54.346;18.562;2022-07-05T05:28:04;1.50;;;0.80;;
57023;SDS011;42916;54.346;18.562;2022-07-05T05:30:30;2.10;;;0.90;;
57023;SDS011;42916;54.346;18.562;2022-07-05T05:32:57;1.90;;;1.00;;
57023;SDS011;42916;54.346;18.562;2022-07-05T05:35:24;2.40;;;0.80;;
57023;SDS011;42916;54.346;18.562;2022-07-05T05:37:51;1.90;;;0.80;;
57023;SDS011;42916;54.346;18.562;2022-07-05T05:40:20;2.20;;;0.90;;
57023;SDS011;42916;54.346;18.562;2022-07-05T05:42:48;1.70;;;0.90;;
57023;SDS011;42916;54.346;18.562;2022-07-05T05:45:16;1.50;;;0.80;;
57023;SDS011;42916;54.346;18.562;2022-07-05T05:47:48;2.80;;;1.00;;
57023;SDS011;42916;54.346;18.562;2022-07-05T05:50:23;3.80;;;1.00;;
57023;SDS011;42916;54.346;18.562;2022-07-05T05:53:00;3.40;;;0.90;;
57023;SDS011;42916;54.346;18.562;2022-07-05T05:55:28;4.50;;;0.90;;
57023;SDS011;42916;54.346;18.562;2022-07-05T05:57:55;6.50;;;0.90;;
57023;SDS011;42916;54.346;18.562;2022-07-05T06:00:28;2.60;;;1.00;;
57023;SDS011;42916;54.346;18.562;2022-07-05T06:02:55;3.30;;;0.80;;
57023;SDS011;42916;54.346;18.562;2022-07-05T06:05:21;2.30;;;1.30;;
57023;SDS011;42916;54.346;18.562;2022-07-05T06:07:55;4.30;;;1.00;;
57023;SDS011;42916;54.346;18.562;2022-07-05T06:10:26;2.30;;;1.00;;
57023;SDS011;42916;54.346;18.562;2022-07-05T06:12:58;3.80;;;1.30;;
57023;SDS011;42916;54.346;18.562;2022-07-05T06:15:35;2.30;;;1.10;;
57023;SDS011;42916;54.346;18.562;2022-07-05T06:18:03;1.70;;;1.10;;
57023;SDS011;42916;54.346;18.562;2022-07-05T06:20:31;3.10;;;1.10;;
57023;SDS011;42916;54.346;18.562;2022-07-05T06:22:59;4.60;;;1.00;;
57023;SDS011;42916;54.346;18.562;2022-07-05T06:25:26;1.20;;;0.80;;
57023;SDS011;42916;54.346;18.562;2022-07-05T06:27:54;2.50;;;0.80;;
57023;SDS011;42916;54.346;18.562;2022-07-05T06:30:23;4.70;;;1.00;;
57023;SDS011;42916;54.346;18.562;2022-07-05T06:32:51;2.00;;;1.00;;
57023;SDS011;42916;54.346;18.562;2022-07-05T06:35:19;2.90;;;1.00;;
57023;SDS011;42916;54.346;18.562;2022-07-05T06:37:47;3.90;;;1.10;;
57023;SDS011;42916;54.346;18.562;2022-07-05T06:40:24;3.60;;;1.00;;
57023;SDS011;42916;54.346;18.562;2022-07-05T06:45:23;2.90;;;1.00;;
57023;SDS011;42916;54.346;18.562;2022-07-05T06:47:57;4.10;;;1.40;;
57023;SDS011;42916;54.346;18.562;2022-07-05T06:50:25;3.60;;;1.10;;
57023;SDS011;42916;54.346;18.562;2022-07-05T06:52:53;2.30;;;0.70;;
57023;SDS011;42916;54.346;18.562;2022-07-05T06:55:20;3.30;;;0.90;;
57023;SDS011;42916;54.346;18.562;2022-07-05T06:57:48;1.70;;;0.80;;
57023;SDS011;42916;54.346;18.562;2022-07-05T07:00:15;2.00;;;1.00;;
57023;SDS011;42916;54.346;18.562;2022-07-05T07:02:41;1.70;;;0.70;;
57023;SDS011;42916;54.346;18.562;2022-07-05T07:05:08;5.60;;;1.00;;
57023;SDS011;42916;54.346;18.562;2022-07-05T07:07:35;3.70;;;0.90;;
57023;SDS011;42916;54.346;18.562;2022-07-05T07:10:20;13.70;;;2.40;;
57023;SDS011;42916;54.346;18.562;2022-07-05T07:12:46;5.80;;;1.10;;
57023;SDS011;42916;54.346;18.562;2022-07-05T07:15:13;8.50;;;1.90;;
57023;SDS011;42916;54.346;18.562;2022-07-05T07:17:40;4.30;;;1.20;;
57023;SDS011;42916;54.346;18.562;2022-07-05T07:20:06;3.40;;;1.10;;
57023;SDS011;42916;54.346;18.562;2022-07-05T07:22:33;3.10;;;1.10;;
57023;SDS011;42916;54.346;18.562;2022-07-05T07:25:00;6.20;;;1.10;;
57023;SDS011;42916;54.346;18.562;2022-07-05T07:27:27;1.80;;;1.00;;
57023;SDS011;42916;54.346;18.562;2022-07-05T07:29:53;0.70;;;0.70;;
57023;SDS011;42916;54.346;18.562;2022-07-05T07:32:20;1.50;;;0.80;;
57023;SDS011;42916;54.346;18.562;2022-07-05T07:34:46;3.30;;;1.00;;
57023;SDS011;42916;54.346;18.562;2022-07-05T07:37:13;2.10;;;0.80;;
57023;SDS011;42916;54.346;18.562;2022-07-05T07:39:40;3.10;;;1.10;;
57023;SDS011;42916;54.346;18.562;2022-07-05T07:42:07;2.90;;;1.40;;
57023;SDS011;42916;54.346;18.562;2022-07-05T07:44:34;2.00;;;0.70;;
57023;SDS011;42916;54.346;18.562;2022-07-05T07:47:01;3.50;;;0.80;;
57023;SDS011;42916;54.346;18.562;2022-07-05T07:49:27;1.60;;;0.80;;
57023;SDS011;42916;54.346;18.562;2022-07-05T07:51:54;1.40;;;0.60;;
57023;SDS011;42916;54.346;18.562;2022-07-05T07:54:21;2.20;;;0.70;;
57023;SDS011;42916;54.346;18.562;2022-07-05T07:56:47;2.00;;;0.70;;
57023;SDS011;42916;54.346;18.562;2022-07-05T07:59:14;2.00;;;0.90;;
57023;SDS011;42916;54.346;18.562;2022-07-05T08:01:40;2.50;;;1.30;;
57023;SDS011;42916;54.346;18.562;2022-07-05T08:04:07;1.90;;;1.40;;
57023;SDS011;42916;54.346;18.562;2022-07-05T08:06:33;3.40;;;0.90;;
57023;SDS011;42916;54.346;18.562;2022-07-05T08:09:00;1.30;;;0.90;;
57023;SDS011;42916;54.346;18.562;2022-07-05T08:11:26;1.40;;;0.80;;
57023;SDS011;42916;54.346;18.562;2022-07-05T08:13:53;2.50;;;0.90;;
57023;SDS011;42916;54.346;18.562;2022-07-05T08:16:20;4.00;;;1.20;;
57023;SDS011;42916;54.346;18.562;2022-07-05T08:18:46;2.80;;;1.00;;
57023;SDS011;42916;54.346;18.562;2022-07-05T08:21:32;1.70;;;1.10;;
57023;SDS011;42916;54.346;18.562;2022-07-05T08:23:58;1.80;;;0.90;;
57023;SDS011;42916;54.346;18.562;2022-07-05T08:26:26;1.80;;;0.90;;
57023;SDS011;42916;54.346;18.562;2022-07-05T08:28:54;1.80;;;1.00;;
57023;SDS011;42916;54.346;18.562;2022-07-05T08:31:20;1.70;;;1.00;;
57023;SDS011;42916;54.346;18.562;2022-07-05T08:33:47;2.90;;;0.90;;
57023;SDS011;42916;54.346;18.562;2022-07-05T08:36:14;2.10;;;1.50;;
57023;SDS011;42916;54.346;18.562;2022-07-05T08:38:40;1.90;;;1.10;;
57023;SDS011;42916;54.346;18.562;2022-07-05T08:41:07;2.20;;;1.10;;
57023;SDS011;42916;54.346;18.562;2022-07-05T08:46:10;1.70;;;0.90;;
57023;SDS011;42916;54.346;18.562;2022-07-05T08:48:38;2.80;;;0.90;;
57023;SDS011;42916;54.346;18.562;2022-07-05T08:51:13;1.30;;;0.80;;
57023;SDS011;42916;54.346;18.562;2022-07-05T08:53:44;3.50;;;0.90;;
57023;SDS011;42916;54.346;18.562;2022-07-05T08:56:12;2.50;;;0.90;;
57023;SDS011;42916;54.346;18.562;2022-07-05T08:58:40;1.00;;;0.90;;
57023;SDS011;42916;54.346;18.562;2022-07-05T09:01:07;2.70;;;1.10;;
57023;SDS011;42916;54.346;18.562;2022-07-05T09:03:51;4.70;;;1.50;;
57023;SDS011;42916;54.346;18.562;2022-07-05T09:06:20;3.10;;;1.70;;
57023;SDS011;42916;54.346;18.562;2022-07-05T09:08:50;4.20;;;1.10;;
57023;SDS011;42916;54.346;18.562;2022-07-05T09:11:23;3.00;;;1.10;;
57023;SDS011;42916;54.346;18.562;2022-07-05T09:13:55;1.40;;;0.90;;
57023;SDS011;42916;54.346;18.562;2022-07-05T09:16:21;1.90;;;0.90;;
57023;SDS011;42916;54.346;18.562;2022-07-05T09:18:51;2.60;;;1.00;;
57023;SDS011;42916;54.346;18.562;2022-07-05T09:21:21;2.10;;;1.10;;
57023;SDS011;42916;54.346;18.562;2022-07-05T09:24:08;4.40;;;1.20;;
57023;SDS011;42916;54.346;18.562;2022-07-05T09:29:10;1.30;;;1.10;;
57023;SDS011;42916;54.346;18.562;2022-07-05T09:31:42;3.80;;;1.40;;
57023;SDS011;42916;54.346;18.562;2022-07-05T09:34:11;2.00;;;1.10;;
57023;SDS011;42916;54.346;18.562;2022-07-05T09:36:56;2.30;;;1.10;;
57023;SDS011;42916;54.346;18.562;2022-07-05T09:44:41;2.10;;;1.50;;
57023;SDS011;42916;54.346;18.562;2022-07-05T09:47:13;2.50;;;1.50;;
57023;SDS011;42916;54.346;18.562;2022-07-05T09:49:41;1.50;;;1.30;;
57023;SDS011;42916;54.346;18.562;2022-07-05T09:52:30;1.90;;;1.50;;
57023;SDS011;42916;54.346;18.562;2022-07-05T09:55:07;3.60;;;1.40;;
57023;SDS011;42916;54.346;18.562;2022-07-05T09:57:42;3.90;;;1.60;;
57023;SDS011;42916;54.346;18.562;2022-07-05T10:00:13;2.40;;;1.40;;
57023;SDS011;42916;54.346;18.562;2022-07-05T10:02:45;2.90;;;1.60;;
57023;SDS011;42916;54.346;18.562;2022-07-05T10:05:21;2.00;;;1.40;;
57023;SDS011;42916;54.346;18.562;2022-07-05T10:07:58;4.70;;;1.30;;
57023;SDS011;42916;54.346;18.562;2022-07-05T10:10:30;4.40;;;1.80;;
57023;SDS011;42916;54.346;18.562;2022-07-05T10:12:58;4.30;;;1.90;;
57023;SDS011;42916;54.346;18.562;2022-07-05T10:15:29;2.20;;;1.40;;
57023;SDS011;42916;54.346;18.562;2022-07-05T10:18:07;3.00;;;1.20;;
57023;SDS011;42916;54.346;18.562;2022-07-05T10:20:46;2.40;;;1.50;;
57023;SDS011;42916;54.346;18.562;2022-07-05T10:23:18;1.60;;;1.20;;
57023;SDS011;42916;54.346;18.562;2022-07-05T10:25:46;3.30;;;1.30;;
57023;SDS011;42916;54.346;18.562;2022-07-05T10:28:18;2.10;;;1.50;;
57023;SDS011;42916;54.346;18.562;2022-07-05T10:30:49;1.60;;;1.40;;
57023;SDS011;42916;54.346;18.562;2022-07-05T10:33:19;4.00;;;1.50;;
57023;SDS011;42916;54.346;18.562;2022-07-05T10:35:53;1.40;;;1.30;;
57023;SDS011;42916;54.346;18.562;2022-07-05T10:38:20;2.20;;;1.30;;
57023;SDS011;42916;54.346;18.562;2022-07-05T10:40:49;1.80;;;1.30;;
57023;SDS011;42916;54.346;18.562;2022-07-05T10:43:21;1.20;;;1.00;;
57023;SDS011;42916;54.346;18.562;2022-07-05T10:45:49;2.00;;;1.20;;
57023;SDS011;42916;54.346;18.562;2022-07-05T10:48:26;2.20;;;1.20;;
57023;SDS011;42916;54.346;18.562;2022-07-05T10:50:58;1.70;;;1.30;;
57023;SDS011;42916;54.346;18.562;2022-07-05T11:11:23;1.40;;;1.30;;
57023;SDS011;42916;54.346;18.562;2022-07-05T11:13:58;2.30;;;1.30;;
57023;SDS011;42916;54.346;18.562;2022-07-05T11:16:30;2.70;;;1.50;;
57023;SDS011;42916;54.346;18.562;2022-07-05T11:19:07;2.20;;;1.40;;
57023;SDS011;42916;54.346;18.562;2022-07-05T11:21:34;1.90;;;1.10;;
57023;SDS011;42916;54.346;18.562;2022-07-05T11:26:47;1.50;;;1.20;;
57023;SDS011;42916;54.346;18.562;2022-07-05T11:34:46;2.30;;;1.10;;
57023;SDS011;42916;54.346;18.562;2022-07-05T11:37:18;3.70;;;1.70;;
57023;SDS011;42916;54.346;18.562;2022-07-05T11:40:37;4.20;;;1.60;;
57023;SDS011;42916;54.346;18.562;2022-07-05T11:42:37;3.10;;;1.50;;
57023;SDS011;42916;54.346;18.562;2022-07-05T11:45:12;3.20;;;1.40;;
57023;SDS011;42916;54.346;18.562;2022-07-05T11:47:39;3.40;;;1.70;;
57023;SDS011;42916;54.346;18.562;2022-07-05T11:52:35;3.90;;;1.80;;
57023;SDS011;42916;54.346;18.562;2022-07-05T11:57:31;3.90;;;1.70;;
57023;SDS011;42916;54.346;18.562;2022-07-05T11:59:58;2.90;;;1.70;;
57023;SDS011;42916;54.346;18.562;2022-07-05T12:02:24;4.50;;;1.90;;
57023;SDS011;42916;54.346;18.562;2022-07-05T12:04:55;3.60;;;1.80;;
57023;SDS011;42916;54.346;18.562;2022-07-05T12:09:55;3.50;;;1.90;;
57023;SDS011;42916;54.346;18.562;2022-07-05T12:12:41;2.20;;;1.60;;
57023;SDS011;42916;54.346;18.562;2022-07-05T12:15:09;4.00;;;2.40;;
57023;SDS011;42916;54.346;18.562;2022-07-05T12:17:44;3.60;;;2.00;;
57023;SDS011;42916;54.346;18.562;2022-07-05T12:20:13;5.50;;;2.30;;
57023;SDS011;42916;54.346;18.562;2022-07-05T12:22:42;6.40;;;1.90;;
57023;SDS011;42916;54.346;18.562;2022-07-05T12:25:13;5.40;;;2.10;;
57023;SDS011;42916;54.346;18.562;2022-07-05T12:27:42;3.10;;;2.10;;
57023;SDS011;42916;54.346;18.562;2022-07-05T12:30:10;4.40;;;2.00;;
57023;SDS011;42916;54.346;18.562;2022-07-05T12:38:03;5.00;;;1.90;;
57023;SDS011;42916;54.346;18.562;2022-07-05T12:40:30;3.80;;;1.70;;
57023;SDS011;42916;54.346;18.562;2022-07-05T12:43:14;3.80;;;1.80;;
57023;SDS011;42916;54.346;18.562;2022-07-05T12:45:43;2.20;;;1.40;;
57023;SDS011;42916;54.346;18.562;2022-07-05T12:48:34;6.70;;;1.70;;
57023;SDS011;42916;54.346;18.562;2022-07-05T12:51:02;3.00;;;1.60;;
57023;SDS011;42916;54.346;18.562;2022-07-05T12:53:29;4.80;;;1.80;;
57023;SDS011;42916;54.346;18.562;2022-07-05T12:56:15;4.20;;;1.80;;
57023;SDS011;42916;54.346;18.562;2022-07-05T12:59:01;4.30;;;2.10;;
57023;SDS011;42916;54.346;18.562;2022-07-05T13:01:30;3.90;;;1.80;;
57023;SDS011;42916;54.346;18.562;2022-07-05T13:09:36;1.70;;;1.20;;
57023;SDS011;42916;54.346;18.562;2022-07-05T13:14:39;5.10;;;1.70;;
57023;SDS011;42916;54.346;18.562;2022-07-05T13:17:06;5.20;;;1.40;;
57023;SDS011;42916;54.346;18.562;2022-07-05T13:19:35;3.00;;;1.40;;
57023;SDS011;42916;54.346;18.562;2022-07-05T13:22:02;4.80;;;1.50;;
57023;SDS011;42916;54.346;18.562;2022-07-05T13:24:29;4.90;;;1.60;;
57023;SDS011;42916;54.346;18.562;2022-07-05T13:26:56;3.90;;;1.40;;
57023;SDS011;42916;54.346;18.562;2022-07-05T13:29:24;5.70;;;1.30;;
57023;SDS011;42916;54.346;18.562;2022-07-05T13:31:51;1.80;;;1.50;;
57023;SDS011;42916;54.346;18.562;2022-07-05T13:34:18;3.20;;;1.50;;
57023;SDS011;42916;54.346;18.562;2022-07-05T13:36:45;5.80;;;1.50;;
57023;SDS011;42916;54.346;18.562;2022-07-05T13:39:12;2.90;;;1.80;;
57023;SDS011;42916;54.346;18.562;2022-07-05T13:41:38;2.70;;;1.30;;
57023;SDS011;42916;54.346;18.562;2022-07-05T13:44:05;3.20;;;1.40;;
57023;SDS011;42916;54.346;18.562;2022-07-05T13:46:31;5.90;;;1.70;;
57023;SDS011;42916;54.346;18.562;2022-07-05T13:48:58;10.30;;;1.80;;
57023;SDS011;42916;54.346;18.562;2022-07-05T13:51:24;4.20;;;1.70;;
57023;SDS011;42916;54.346;18.562;2022-07-05T13:53:51;2.80;;;1.60;;
57023;SDS011;42916;54.346;18.562;2022-07-05T13:56:18;4.30;;;1.80;;
57023;SDS011;42916;54.346;18.562;2022-07-05T13:58:44;2.90;;;1.60;;
57023;SDS011;42916;54.346;18.562;2022-07-05T14:01:11;2.60;;;1.30;;
57023;SDS011;42916;54.346;18.562;2022-07-05T14:03:37;2.80;;;1.40;;
57023;SDS011;42916;54.346;18.562;2022-07-05T14:06:04;4.90;;;1.90;;
57023;SDS011;42916;54.346;18.562;2022-07-05T14:08:31;4.50;;;1.60;;
57023;SDS011;42916;54.346;18.562;2022-07-05T14:10:58;5.80;;;1.80;;
57023;SDS011;42916;54.346;18.562;2022-07-05T14:13:25;3.50;;;1.70;;
57023;SDS011;42916;54.346;18.562;2022-07-05T14:15:52;2.60;;;1.70;;
57023;SDS011;42916;54.346;18.562;2022-07-05T14:18:20;2.90;;;1.60;;
57023;SDS011;42916;54.346;18.562;2022-07-05T14:20:47;6.30;;;1.80;;
57023;SDS011;42916;54.346;18.562;2022-07-05T14:23:14;4.80;;;1.50;;
57023;SDS011;42916;54.346;18.562;2022-07-05T14:25:41;4.90;;;1.50;;
57023;SDS011;42916;54.346;18.562;2022-07-05T14:28:08;4.40;;;1.60;;
57023;SDS011;42916;54.346;18.562;2022-07-05T14:30:37;6.90;;;1.60;;
57023;SDS011;42916;54.346;18.562;2022-07-05T14:33:05;6.40;;;1.80;;
57023;SDS011;42916;54.346;18.562;2022-07-05T14:35:32;3.80;;;1.60;;
57023;SDS011;42916;54.346;18.562;2022-07-05T14:37:59;3.90;;;1.60;;
57023;SDS011;42916;54.346;18.562;2022-07-05T14:40:26;3.60;;;1.60;;
57023;SDS011;42916;54.346;18.562;2022-07-05T14:42:53;5.20;;;1.80;;
57023;SDS011;42916;54.346;18.562;2022-07-05T14:45:20;4.60;;;1.60;;
57023;SDS011;42916;54.346;18.562;2022-07-05T14:47:48;5.30;;;1.80;;
57023;SDS011;42916;54.346;18.562;2022-07-05T14:50:14;2.70;;;1.60;;
57023;SDS011;42916;54.346;18.562;2022-07-05T14:52:41;4.90;;;2.00;;
57023;SDS011;42916;54.346;18.562;2022-07-05T14:55:09;2.70;;;1.50;;
57023;SDS011;42916;54.346;18.562;2022-07-05T14:57:36;6.50;;;1.70;;
57023;SDS011;42916;54.346;18.562;2022-07-05T15:00:04;3.70;;;1.60;;
57023;SDS011;42916;54.346;18.562;2022-07-05T15:02:33;3.90;;;1.70;;
57023;SDS011;42916;54.346;18.562;2022-07-05T15:05:00;4.70;;;1.90;;
57023;SDS011;42916;54.346;18.562;2022-07-05T15:07:27;4.20;;;1.60;;
57023;SDS011;42916;54.346;18.562;2022-07-05T15:09:54;6.00;;;2.10;;
57023;SDS011;42916;54.346;18.562;2022-07-05T15:12:21;3.00;;;1.60;;
57023;SDS011;42916;54.346;18.562;2022-07-05T15:14:48;6.90;;;1.70;;
57023;SDS011;42916;54.346;18.562;2022-07-05T15:17:14;4.40;;;1.80;;
57023;SDS011;42916;54.346;18.562;2022-07-05T15:19:42;3.80;;;1.70;;
57023;SDS011;42916;54.346;18.562;2022-07-05T15:22:09;5.90;;;1.70;;
57023;SDS011;42916;54.346;18.562;2022-07-05T15:24:36;3.50;;;1.60;;
57023;SDS011;42916;54.346;18.562;2022-07-05T15:27:03;3.40;;;1.70;;
57023;SDS011;42916;54.346;18.562;2022-07-05T15:29:29;6.40;;;1.80;;
57023;SDS011;42916;54.346;18.562;2022-07-05T15:31:56;4.30;;;1.50;;
57023;SDS011;42916;54.346;18.562;2022-07-05T15:34:24;3.70;;;1.60;;
57023;SDS011;42916;54.346;18.562;2022-07-05T15:36:52;2.90;;;1.70;;
57023;SDS011;42916;54.346;18.562;2022-07-05T15:39:18;2.80;;;1.70;;
57023;SDS011;42916;54.346;18.562;2022-07-05T15:41:45;7.10;;;2.00;;
57023;SDS011;42916;54.346;18.562;2022-07-05T15:44:11;3.30;;;1.60;;